createdAt,value
2023-02-20T00:00:22.427Z,2.00
2023-02-20T00:02:49.510Z,2.15
2023-02-20T00:05:16.658Z,1.98
2023-02-20T00:07:43.532Z,2.45
2023-02-20T00:10:11.040Z,2.10
2023-02-20T00:12:38.242Z,2.03
2023-02-20T00:15:05.727Z,2.10
2023-02-20T00:17:32.429Z,2.03
2023-02-20T00:19:59.306Z,2.30
2023-02-20T00:22:26.426Z,1.98
2023-02-20T00:24:53.794Z,1.83
2023-02-20T00:27:20.535Z,2.42
2023-02-20T00:29:47.410Z,2.45
2023-02-20T00:32:17.023Z,1.95
2023-02-20T00:34:43.836Z,2.47
2023-02-20T00:37:10.627Z,2.10
2023-02-20T00:39:37.264Z,2.15
2023-02-20T00:42:06.110Z,1.80
2023-02-20T00:44:33.043Z,2.15
2023-02-20T00:46:59.736Z,2.30
2023-02-20T00:49:26.577Z,2.05
2023-02-20T00:51:53.419Z,2.15
2023-02-20T00:54:20.201Z,2.22
2023-02-20T00:56:47.059Z,2.72
2023-02-20T00:59:13.908Z,2.50
2023-02-20T01:01:41.067Z,2.15
2023-02-20T01:04:08.012Z,2.65
2023-02-20T01:06:34.694Z,2.38
2023-02-20T01:09:01.312Z,2.35
2023-02-20T01:11:27.979Z,2.45
2023-02-20T01:13:54.725Z,2.40
2023-02-20T01:16:21.425Z,2.60
2023-02-20T01:18:51.644Z,2.78
2023-02-20T01:21:18.529Z,2.70
2023-02-20T01:23:45.449Z,2.40
2023-02-20T01:26:12.653Z,2.55
2023-02-20T01:28:39.594Z,2.67
2023-02-20T01:31:07.551Z,2.50
2023-02-20T01:33:34.323Z,2.20
2023-02-20T01:36:01.034Z,2.60
2023-02-20T01:38:27.744Z,2.78
2023-02-20T01:40:54.625Z,2.65
2023-02-20T01:43:21.347Z,2.50
2023-02-20T01:45:48.034Z,2.28
2023-02-20T01:48:26.103Z,2.70
2023-02-20T01:50:58.617Z,2.60
2023-02-20T01:53:28.644Z,2.67
2023-02-20T01:56:02.510Z,2.58
2023-02-20T01:58:33.995Z,2.28
2023-02-20T02:01:00.985Z,2.77
2023-02-20T02:03:35.374Z,2.33
2023-02-20T02:06:07.384Z,2.30
2023-02-20T02:08:36.884Z,2.40
2023-02-20T02:11:24.181Z,2.30
2023-02-20T02:13:51.248Z,2.50
2023-02-20T02:16:27.167Z,2.17
2023-02-20T02:19:00.000Z,2.40
2023-02-20T02:21:32.741Z,2.20
2023-02-20T02:24:29.987Z,2.50
2023-02-20T02:27:30.684Z,2.28
2023-02-20T02:30:29.125Z,2.05
2023-02-20T02:33:02.050Z,2.30
2023-02-20T02:35:54.533Z,2.20
2023-02-20T02:38:30.868Z,2.05
2023-02-20T02:41:06.672Z,2.42
2023-02-20T02:43:39.424Z,2.10
2023-02-20T02:46:32.774Z,1.95
2023-02-20T02:49:11.436Z,1.92
2023-02-20T02:51:45.790Z,1.85
2023-02-20T02:54:17.642Z,2.22
2023-02-20T02:56:47.407Z,2.10
2023-02-20T02:59:28.858Z,2.03
2023-02-20T03:02:03.588Z,2.08
2023-02-20T03:04:32.823Z,2.15
2023-02-20T03:07:08.737Z,2.00
2023-02-20T03:09:40.711Z,2.78
2023-02-20T03:15:09.143Z,1.60
2023-02-20T03:17:51.854Z,1.80
2023-02-20T03:20:21.207Z,1.80
2023-02-20T03:22:55.932Z,1.95
2023-02-20T03:25:26.059Z,2.22
2023-02-20T03:28:10.433Z,1.90
2023-02-20T03:30:44.203Z,2.35
2023-02-20T03:33:58.108Z,2.25
2023-02-20T03:36:51.231Z,2.10
2023-02-20T03:39:45.085Z,2.45
2023-02-20T03:42:34.114Z,2.10
2023-02-20T03:45:10.551Z,2.28
2023-02-20T03:47:43.012Z,2.08
2023-02-20T03:50:31.717Z,2.08
2023-02-20T03:52:59.782Z,2.33
2023-02-20T03:55:26.994Z,1.90
2023-02-20T03:57:59.715Z,1.70
2023-02-20T04:00:33.433Z,2.25
2023-02-20T04:03:09.222Z,1.85
2023-02-20T04:05:43.226Z,2.13
2023-02-20T04:08:36.059Z,2.17
2023-02-20T04:11:09.108Z,2.63
2023-02-20T04:16:04.947Z,1.98
2023-02-20T04:18:33.071Z,1.95
2023-02-20T04:21:07.748Z,2.00
2023-02-20T04:23:43.144Z,2.13
2023-02-20T04:26:16.106Z,1.93
2023-02-20T04:28:45.691Z,2.00
2023-02-20T04:31:17.716Z,1.90
2023-02-20T04:33:45.476Z,2.03
2023-02-20T04:36:23.625Z,2.50
2023-02-20T04:38:51.869Z,1.83
2023-02-20T04:41:23.388Z,2.13
2023-02-20T04:43:50.063Z,1.90
2023-02-20T04:46:16.968Z,1.77
2023-02-20T04:48:44.469Z,2.20
2023-02-20T04:51:11.319Z,2.33
2023-02-20T04:53:38.232Z,1.88
2023-02-20T04:56:05.158Z,1.95
2023-02-20T04:58:36.964Z,2.45
2023-02-20T05:01:12.555Z,2.13
2023-02-20T05:03:39.212Z,2.40
2023-02-20T05:06:06.058Z,2.15
2023-02-20T05:08:32.698Z,2.08
2023-02-20T05:10:59.336Z,1.95
2023-02-20T05:13:25.984Z,2.17
2023-02-20T05:15:52.644Z,2.33
2023-02-20T05:18:29.842Z,1.88
2023-02-20T05:21:15.660Z,2.15
2023-02-20T05:23:42.545Z,2.30
2023-02-20T05:26:16.873Z,2.40
2023-02-20T05:28:43.698Z,1.90
2023-02-20T05:31:10.525Z,3.38
2023-02-20T05:33:37.378Z,4.13
2023-02-20T05:36:04.825Z,3.60
2023-02-20T05:38:31.486Z,3.38
2023-02-20T05:40:58.114Z,4.15
2023-02-20T05:43:24.788Z,7.28
2023-02-20T05:45:51.408Z,7.25
2023-02-20T05:48:18.098Z,4.15
2023-02-20T05:50:44.747Z,5.75
2023-02-20T05:55:44.024Z,5.05
2023-02-20T05:58:10.680Z,3.90
2023-02-20T06:00:37.302Z,3.53
2023-02-20T06:03:07.724Z,3.65
2023-02-20T06:05:34.406Z,2.80
2023-02-20T06:08:01.064Z,3.67
2023-02-20T06:10:27.884Z,3.15
2023-02-20T06:12:54.540Z,2.50
2023-02-20T06:15:21.180Z,2.58
2023-02-20T06:17:47.795Z,2.47
2023-02-20T06:20:15.028Z,2.40
2023-02-20T06:22:41.976Z,2.60
2023-02-20T06:25:09.332Z,2.42
2023-02-20T06:27:39.438Z,1.98
2023-02-20T06:30:06.450Z,2.55
2023-02-20T06:32:33.192Z,2.80
2023-02-20T06:34:59.827Z,2.75
2023-02-20T06:37:26.534Z,2.03
2023-02-20T06:39:53.228Z,2.72
2023-02-20T06:42:19.863Z,2.80
2023-02-20T06:44:46.463Z,2.55
2023-02-20T06:47:13.096Z,2.75
2023-02-20T06:49:41.854Z,5.18
2023-02-20T06:52:09.076Z,7.03
2023-02-20T06:54:36.499Z,3.97
2023-02-20T06:57:03.186Z,3.42
2023-02-20T06:59:29.822Z,2.83
2023-02-20T07:01:56.627Z,3.33
2023-02-20T07:04:27.740Z,3.20
2023-02-20T07:06:55.664Z,3.00
2023-02-20T07:09:22.559Z,3.33
2023-02-20T07:11:50.616Z,3.38
2023-02-20T07:14:17.421Z,2.80
2023-02-20T07:16:44.094Z,2.83
2023-02-20T07:19:10.753Z,3.83
2023-02-20T07:21:37.439Z,3.95
2023-02-20T07:24:04.403Z,2.90
2023-02-20T07:26:31.323Z,2.80
2023-02-20T07:28:58.994Z,2.85
2023-02-20T07:31:26.100Z,3.72
2023-02-20T07:33:53.077Z,2.80
2023-02-20T07:36:20.308Z,2.53
2023-02-20T07:38:58.324Z,3.22
2023-02-20T07:41:26.722Z,2.08
2023-02-20T07:43:53.385Z,2.53
2023-02-20T07:46:20.634Z,2.05
2023-02-20T07:48:47.640Z,2.90
2023-02-20T07:51:14.539Z,2.92
2023-02-20T07:53:41.340Z,2.53
2023-02-20T07:56:08.008Z,2.53
2023-02-20T07:58:34.786Z,1.65
2023-02-20T08:01:01.458Z,2.17
2023-02-20T08:03:28.106Z,1.88
2023-02-20T08:05:54.821Z,1.60
2023-02-20T08:08:24.499Z,1.75
2023-02-20T08:10:57.156Z,1.88
2023-02-20T08:13:30.484Z,1.58
2023-02-20T08:15:57.086Z,1.80
2023-02-20T08:18:24.420Z,1.77
2023-02-20T08:20:52.149Z,2.28
2023-02-20T08:23:21.997Z,3.10
2023-02-20T08:25:48.769Z,2.33
2023-02-20T08:28:15.891Z,1.50
2023-02-20T08:30:42.691Z,1.80
2023-02-20T08:33:09.408Z,1.90
2023-02-20T08:35:36.604Z,1.55
2023-02-20T08:38:05.487Z,1.55
2023-02-20T08:40:32.977Z,1.40
2023-02-20T08:43:00.280Z,1.50
2023-02-20T08:45:26.977Z,1.42
2023-02-20T08:47:59.531Z,1.50
2023-02-20T08:50:26.194Z,1.50
2023-02-20T08:52:52.860Z,1.95
2023-02-20T08:55:19.487Z,1.70
2023-02-20T08:57:46.183Z,1.48
2023-02-20T09:00:15.431Z,1.55
2023-02-20T09:02:42.704Z,1.60
2023-02-20T09:05:09.958Z,1.73
2023-02-20T09:07:36.638Z,1.10
2023-02-20T09:10:03.916Z,1.30
2023-02-20T09:12:31.937Z,1.52
2023-02-20T09:15:02.475Z,1.67
2023-02-20T09:17:29.596Z,1.40
2023-02-20T09:19:56.407Z,1.48
2023-02-20T09:22:24.503Z,1.50
2023-02-20T09:24:51.988Z,1.10
2023-02-20T09:27:18.898Z,1.40
2023-02-20T09:29:47.220Z,1.35
2023-02-20T09:32:14.732Z,1.40
2023-02-20T09:34:41.429Z,1.30
2023-02-20T09:37:08.729Z,1.30
2023-02-20T09:39:35.513Z,1.20
2023-02-20T09:42:08.237Z,1.35
2023-02-20T09:44:48.360Z,1.15
2023-02-20T09:47:30.675Z,1.30
2023-02-20T09:52:27.370Z,1.42
2023-02-20T09:55:02.392Z,1.20
2023-02-20T09:57:30.805Z,1.55
2023-02-20T10:00:06.746Z,1.48
2023-02-20T10:02:40.046Z,1.20
2023-02-20T10:05:19.411Z,1.35
2023-02-20T10:07:49.042Z,1.30
2023-02-20T10:10:28.322Z,1.40
2023-02-20T10:13:20.907Z,1.27
2023-02-20T10:16:14.190Z,1.40
2023-02-20T10:19:09.454Z,1.40
2023-02-20T10:21:39.077Z,1.33
2023-02-20T10:24:43.537Z,1.15
2023-02-20T10:27:30.540Z,1.70
2023-02-20T10:29:59.700Z,1.60
2023-02-20T10:32:34.334Z,1.40
2023-02-20T10:35:11.287Z,1.30
2023-02-20T10:37:47.936Z,1.20
2023-02-20T10:40:24.451Z,1.10
2023-02-20T10:43:03.152Z,1.45
2023-02-20T10:46:17.979Z,1.00
2023-02-20T10:48:45.537Z,0.80
2023-02-20T10:51:18.648Z,1.00
2023-02-20T10:53:55.288Z,0.95
2023-02-20T10:56:40.079Z,0.95
2023-02-20T10:59:18.209Z,1.17
2023-02-20T11:01:51.804Z,0.90
2023-02-20T11:04:27.644Z,1.10
2023-02-20T11:07:04.907Z,0.90
2023-02-20T11:09:31.894Z,1.20
2023-02-20T11:11:59.408Z,1.40
2023-02-20T11:14:47.127Z,1.10
2023-02-20T11:17:19.302Z,1.00
2023-02-20T11:19:47.433Z,0.80
2023-02-20T11:22:16.629Z,0.90
2023-02-20T11:24:44.712Z,1.55
2023-02-20T11:27:25.065Z,0.95
2023-02-20T11:29:54.803Z,0.90
2023-02-20T11:32:36.917Z,0.93
2023-02-20T11:37:35.986Z,1.00
2023-02-20T11:40:06.456Z,1.02
2023-02-20T11:42:35.197Z,1.08
2023-02-20T11:45:17.399Z,0.90
2023-02-20T11:50:19.055Z,1.13
2023-02-20T11:52:56.926Z,1.00
2023-02-20T11:55:27.641Z,1.10
2023-02-20T11:57:54.661Z,0.80
2023-02-20T12:00:43.037Z,1.00
2023-02-20T12:03:09.625Z,1.20
2023-02-20T12:05:40.003Z,1.00
2023-02-20T12:08:55.217Z,1.10
2023-02-20T12:11:25.924Z,1.00
2023-02-20T12:13:55.009Z,0.90
2023-02-20T12:16:49.996Z,0.98
2023-02-20T12:19:25.831Z,0.90
2023-02-20T12:22:07.481Z,0.80
2023-02-20T12:24:50.515Z,0.93
2023-02-20T12:27:35.692Z,0.88
2023-02-20T12:30:11.507Z,0.90
2023-02-20T12:32:44.202Z,0.90
2023-02-20T12:35:21.262Z,0.95
2023-02-20T12:38:15.247Z,0.95
2023-02-20T12:40:53.232Z,0.90
2023-02-20T12:43:30.569Z,0.90
2023-02-20T12:46:15.154Z,0.80
2023-02-20T12:49:18.542Z,1.10
2023-02-20T12:51:59.535Z,0.73
2023-02-20T12:54:52.020Z,0.70
2023-02-20T12:57:28.421Z,0.80
2023-02-20T13:00:22.446Z,0.70
2023-02-20T13:02:56.822Z,0.50
2023-02-20T13:05:27.376Z,0.40
2023-02-20T13:08:03.944Z,0.55
2023-02-20T13:10:34.089Z,0.60
2023-02-20T13:13:01.782Z,0.70
2023-02-20T13:15:28.476Z,0.75
2023-02-20T13:18:04.763Z,0.57
2023-02-20T13:20:39.227Z,0.60
2023-02-20T13:23:28.011Z,0.40
2023-02-20T13:25:57.400Z,0.60
2023-02-20T13:28:33.267Z,0.70
2023-02-20T13:31:11.193Z,0.70
2023-02-20T13:33:38.923Z,0.70
2023-02-20T13:36:07.078Z,0.70
2023-02-20T13:38:33.736Z,0.50
2023-02-20T13:41:09.257Z,0.57
2023-02-20T13:43:37.172Z,0.60
2023-02-20T13:46:15.003Z,0.60
2023-02-20T13:48:50.125Z,0.65
2023-02-20T13:51:16.845Z,0.70
2023-02-20T13:53:54.790Z,0.65
2023-02-20T13:56:28.089Z,0.60
2023-02-20T13:58:57.763Z,0.57
2023-02-20T14:01:24.774Z,0.70
2023-02-20T14:04:03.932Z,0.70
2023-02-20T14:06:31.362Z,0.80
2023-02-20T14:09:10.158Z,0.70
2023-02-20T14:11:39.924Z,0.70
2023-02-20T14:14:11.766Z,0.80
2023-02-20T14:16:44.506Z,0.70
2023-02-20T14:19:25.742Z,0.85
2023-02-20T14:21:53.292Z,0.60
2023-02-20T14:24:27.392Z,0.68
2023-02-20T14:26:59.409Z,0.65
2023-02-20T14:31:58.569Z,0.70
2023-02-20T14:34:37.561Z,0.70
2023-02-20T14:37:22.384Z,0.80
2023-02-20T14:40:08.737Z,0.70
2023-02-20T14:42:39.442Z,0.70
2023-02-20T14:45:12.569Z,0.70
2023-02-20T14:47:59.424Z,0.70
2023-02-20T14:50:32.374Z,0.70
2023-02-20T14:53:12.299Z,0.70
2023-02-20T14:55:38.999Z,0.77
2023-02-20T14:58:17.470Z,0.70
2023-02-20T15:00:45.178Z,0.70
2023-02-20T15:03:29.720Z,0.70
2023-02-20T15:06:02.527Z,0.60
2023-02-20T15:08:35.962Z,0.80
2023-02-20T15:11:12.447Z,0.80
2023-02-20T15:13:43.510Z,0.50
2023-02-20T15:16:18.295Z,0.60
2023-02-20T15:18:48.853Z,0.40
2023-02-20T15:21:53.000Z,0.40
2023-02-20T15:24:25.739Z,0.50
2023-02-20T15:26:52.470Z,0.50
2023-02-20T15:29:26.804Z,0.50
2023-02-20T15:31:58.994Z,0.50
2023-02-20T15:34:37.682Z,0.70
2023-02-20T15:37:27.010Z,0.60
2023-02-20T15:40:18.498Z,0.70
2023-02-20T15:42:45.171Z,0.88
2023-02-20T15:45:15.253Z,0.45
2023-02-20T15:47:42.417Z,0.52
2023-02-20T15:50:09.161Z,0.90
2023-02-20T15:52:36.073Z,0.60
2023-02-20T15:55:02.775Z,0.75
2023-02-20T15:57:29.480Z,0.70
2023-02-20T15:59:56.267Z,0.60
2023-02-20T16:02:24.694Z,0.63
2023-02-20T16:04:52.455Z,0.43
2023-02-20T16:07:20.418Z,0.40
2023-02-20T16:09:47.260Z,0.50
2023-02-20T16:12:19.327Z,0.60
2023-02-20T16:17:20.152Z,0.60
2023-02-20T16:19:46.778Z,0.82
2023-02-20T16:22:13.435Z,0.80
2023-02-20T16:24:42.414Z,1.48
2023-02-20T16:27:23.873Z,1.98
2023-02-20T16:29:52.581Z,2.03
2023-02-20T16:32:23.019Z,1.00
2023-02-20T16:34:50.542Z,0.88
2023-02-20T16:37:18.110Z,0.98
2023-02-20T16:39:45.448Z,1.35
2023-02-20T16:42:20.142Z,1.02
2023-02-20T16:44:48.108Z,0.95
2023-02-20T16:47:20.860Z,1.10
2023-02-20T16:49:52.171Z,1.25
2023-02-20T16:52:25.793Z,0.80
2023-02-20T16:54:54.337Z,0.80
2023-02-20T16:57:23.758Z,0.93
2023-02-20T16:59:56.117Z,0.80
2023-02-20T17:02:31.500Z,0.90
2023-02-20T17:04:59.066Z,1.08
2023-02-20T17:07:26.216Z,1.92
2023-02-20T17:09:53.581Z,1.88
2023-02-20T17:12:23.062Z,2.00
2023-02-20T17:14:50.246Z,2.08
2023-02-20T17:17:17.095Z,2.10
2023-02-20T17:19:44.144Z,1.60
2023-02-20T17:22:12.012Z,2.90
2023-02-20T17:24:43.337Z,3.85
2023-02-20T17:27:11.754Z,6.50
2023-02-20T17:29:39.366Z,6.60
2023-02-20T17:32:06.231Z,5.38
2023-02-20T17:34:32.972Z,3.15
2023-02-20T17:36:59.984Z,3.53
2023-02-20T17:39:26.683Z,3.22
2023-02-20T17:41:55.457Z,3.13
2023-02-20T17:44:28.468Z,3.03
2023-02-20T17:46:57.481Z,2.65
2023-02-20T17:49:25.865Z,2.55
2023-02-20T17:51:55.580Z,2.22
2023-02-20T17:54:25.044Z,2.42
2023-02-20T17:56:52.430Z,2.20
2023-02-20T17:59:19.257Z,2.17
2023-02-20T18:01:46.081Z,2.22
2023-02-20T18:04:13.186Z,2.13
2023-02-20T18:06:40.001Z,1.67
2023-02-20T18:09:09.127Z,1.75
2023-02-20T18:11:36.984Z,1.20
2023-02-20T18:14:03.995Z,1.48
2023-02-20T18:16:30.891Z,1.38
2023-02-20T18:18:59.049Z,1.50
2023-02-20T18:21:29.362Z,1.92
2023-02-20T18:23:56.424Z,2.03
2023-02-20T18:26:23.463Z,2.45
2023-02-20T18:28:50.602Z,2.30
2023-02-20T18:31:18.253Z,1.70
2023-02-20T18:33:45.617Z,1.70
2023-02-20T18:36:12.466Z,2.15
2023-02-20T18:38:39.142Z,2.00
2023-02-20T18:41:07.416Z,1.60
2023-02-20T18:43:34.156Z,1.33
2023-02-20T18:46:00.834Z,1.55
2023-02-20T18:48:27.520Z,1.27
2023-02-20T18:50:54.194Z,1.48
2023-02-20T18:53:20.916Z,1.00
2023-02-20T18:55:47.554Z,1.08
2023-02-20T18:58:14.230Z,1.58
2023-02-20T19:00:40.999Z,1.10
2023-02-20T19:03:07.894Z,1.92
2023-02-20T19:05:34.925Z,2.38
2023-02-20T19:08:03.957Z,2.30
2023-02-20T19:10:31.314Z,1.90
2023-02-20T19:12:58.507Z,1.63
2023-02-20T19:15:25.216Z,2.08
2023-02-20T19:17:52.629Z,1.60
2023-02-20T19:20:29.228Z,1.45
2023-02-20T19:22:57.432Z,1.40
2023-02-20T19:25:24.526Z,1.42
2023-02-20T19:27:51.426Z,1.42
2023-02-20T19:30:20.949Z,1.13
2023-02-20T19:32:48.344Z,1.10
2023-02-20T19:35:16.701Z,1.10
2023-02-20T19:37:43.633Z,1.02
2023-02-20T19:40:10.751Z,1.40
2023-02-20T19:42:38.411Z,1.23
2023-02-20T19:45:05.978Z,1.50
2023-02-20T19:47:32.627Z,2.00
2023-02-20T19:49:59.333Z,2.00
2023-02-20T19:52:26.052Z,2.03
2023-02-20T19:54:52.856Z,2.38
2023-02-20T19:57:19.520Z,1.48
2023-02-20T19:59:46.286Z,1.70
2023-02-20T20:02:13.325Z,1.25
2023-02-20T20:04:40.543Z,1.50
2023-02-20T20:07:07.223Z,1.33
2023-02-20T20:09:36.948Z,1.65
2023-02-20T20:12:05.344Z,1.58
2023-02-20T20:14:32.088Z,1.95
2023-02-20T20:16:58.864Z,1.60
2023-02-20T20:19:25.649Z,1.40
2023-02-20T20:21:52.376Z,1.65
2023-02-20T20:24:19.212Z,1.25
2023-02-20T20:26:45.894Z,1.38
2023-02-20T20:29:12.543Z,1.55
2023-02-20T20:31:41.641Z,1.40
2023-02-20T20:34:09.402Z,1.30
2023-02-20T20:36:36.103Z,1.00
2023-02-20T20:39:04.756Z,1.40
2023-02-20T20:41:44.026Z,1.23
2023-02-20T20:44:11.659Z,1.15
2023-02-20T20:46:38.390Z,1.02
2023-02-20T20:49:05.070Z,0.93
2023-02-20T20:51:31.669Z,1.00
2023-02-20T20:53:58.662Z,1.00
2023-02-20T20:56:25.263Z,1.17
2023-02-20T20:58:51.956Z,0.98
2023-02-20T21:01:18.808Z,1.02
2023-02-20T21:03:45.598Z,0.80
2023-02-20T21:06:12.945Z,0.90
2023-02-20T21:08:40.034Z,1.02
2023-02-20T21:11:07.169Z,1.00
2023-02-20T21:13:33.916Z,0.88
2023-02-20T21:16:00.551Z,1.23
2023-02-20T21:18:27.387Z,0.90
2023-02-20T21:20:54.017Z,1.13
2023-02-20T21:23:20.676Z,2.10
2023-02-20T21:25:47.420Z,2.00
2023-02-20T21:28:14.104Z,1.48
2023-02-20T21:30:40.896Z,1.33
2023-02-20T21:33:07.725Z,1.58
2023-02-20T21:35:34.374Z,1.77
2023-02-20T21:38:01.013Z,1.42
2023-02-20T21:40:27.788Z,1.02
2023-02-20T21:43:13.039Z,1.10
2023-02-20T21:45:39.691Z,0.77
2023-02-20T21:48:06.354Z,0.80
2023-02-20T21:50:33.066Z,1.00
2023-02-20T21:53:00.234Z,0.70
2023-02-20T21:55:26.893Z,0.85
2023-02-20T21:57:53.924Z,0.82
2023-02-20T22:00:20.631Z,1.08
2023-02-20T22:02:47.247Z,1.00
2023-02-20T22:05:13.924Z,0.80
2023-02-20T22:07:59.181Z,0.80
2023-02-20T22:10:45.029Z,0.80
2023-02-20T22:13:30.917Z,0.88
2023-02-20T22:16:16.147Z,0.93
2023-02-20T22:19:01.477Z,0.60
2023-02-20T22:21:46.797Z,0.70
2023-02-20T22:24:38.643Z,0.77
2023-02-20T22:27:26.545Z,1.00
2023-02-20T22:30:11.814Z,0.60
2023-02-20T22:32:57.283Z,1.10
2023-02-20T22:35:42.500Z,0.82
2023-02-20T22:38:27.900Z,0.70
2023-02-20T22:41:13.395Z,0.60
2023-02-20T22:43:58.840Z,0.73
2023-02-20T22:46:44.156Z,0.70
2023-02-20T22:49:29.420Z,0.60
2023-02-20T22:52:14.833Z,1.15
2023-02-20T22:55:05.037Z,0.70
2023-02-20T22:57:51.360Z,0.80
2023-02-20T23:00:37.322Z,0.90
2023-02-20T23:03:22.829Z,0.95
2023-02-20T23:06:17.324Z,1.00
2023-02-20T23:09:03.119Z,0.80
2023-02-20T23:11:51.291Z,0.80
2023-02-20T23:14:36.648Z,1.10
2023-02-20T23:17:34.268Z,0.80
2023-02-20T23:20:23.608Z,0.85
2023-02-20T23:23:08.877Z,0.95
2023-02-20T23:25:54.125Z,1.08
2023-02-20T23:28:39.444Z,0.82
2023-02-20T23:31:24.558Z,1.20
2023-02-20T23:34:10.886Z,0.85
2023-02-20T23:36:56.252Z,0.65
2023-02-20T23:39:41.469Z,0.77
2023-02-20T23:42:26.701Z,0.88
2023-02-20T23:45:11.870Z,0.80
2023-02-20T23:47:59.202Z,0.90
2023-02-20T23:50:44.524Z,0.90
2023-02-20T23:53:29.813Z,0.90
2023-02-20T23:56:15.195Z,0.80
2023-02-20T23:59:00.138Z,0.93
